sensor_id;sensor_type;location;lat;lon;timestamp;P1;durP1;ratioP1;P2;durP2;ratioP2
56720;SDS011;53183;47.412;18.884;2023-09-19T12:43:59;2.47;;;1.05;;
56720;SDS011;53183;47.412;18.884;2023-09-19T12:46:27;3.05;;;1.25;;
56720;SDS011;53183;47.412;18.884;2023-09-19T12:51:47;4.28;;;1.40;;
56720;SDS011;53183;47.412;18.884;2023-09-19T12:54:16;2.45;;;1.40;;
56720;SDS011;53183;47.412;18.884;2023-09-19T12:56:45;2.42;;;1.40;;
56720;SDS011;53183;47.412;18.884;2023-09-19T12:59:14;4.30;;;1.55;;
56720;SDS011;53183;47.412;18.884;2023-09-19T13:01:43;3.55;;;1.25;;
56720;SDS011;53183;47.412;18.884;2023-09-19T13:04:17;2.00;;;1.35;;
56720;SDS011;53183;47.412;18.884;2023-09-19T13:06:52;4.80;;;1.20;;
56720;SDS011;53183;47.412;18.884;2023-09-19T13:09:22;7.37;;;1.70;;
56720;SDS011;53183;47.412;18.884;2023-09-19T13:12:01;3.45;;;1.40;;
56720;SDS011;53183;47.412;18.884;2023-09-19T13:14:30;2.87;;;1.08;;
56720;SDS011;53183;47.412;18.884;2023-09-19T13:17:08;2.03;;;1.30;;
56720;SDS011;53183;47.412;18.884;2023-09-19T13:19:47;7.80;;;1.75;;
56720;SDS011;53183;47.412;18.884;2023-09-19T13:22:41;1.42;;;1.02;;
56720;SDS011;53183;47.412;18.884;2023-09-19T13:25:17;1.50;;;1.00;;
56720;SDS011;53183;47.412;18.884;2023-09-19T13:27:49;3.08;;;1.25;;
56720;SDS011;53183;47.412;18.884;2023-09-19T13:30:23;2.75;;;1.00;;
56720;SDS011;53183;47.412;18.884;2023-09-19T13:32:52;1.42;;;1.05;;
56720;SDS011;53183;47.412;18.884;2023-09-19T13:35:33;5.30;;;1.20;;
56720;SDS011;53183;47.412;18.884;2023-09-19T13:38:02;7.05;;;1.33;;
56720;SDS011;53183;47.412;18.884;2023-09-19T13:40:30;2.17;;;1.12;;
56720;SDS011;53183;47.412;18.884;2023-09-19T13:43:02;2.90;;;1.60;;
56720;SDS011;53183;47.412;18.884;2023-09-19T13:45:30;5.87;;;1.40;;
56720;SDS011;53183;47.412;18.884;2023-09-19T13:47:58;2.80;;;1.40;;
56720;SDS011;53183;47.412;18.884;2023-09-19T13:50:27;6.40;;;1.20;;
56720;SDS011;53183;47.412;18.884;2023-09-19T13:52:57;2.65;;;1.25;;
56720;SDS011;53183;47.412;18.884;2023-09-19T13:55:27;2.12;;;1.52;;
56720;SDS011;53183;47.412;18.884;2023-09-19T13:57:56;1.60;;;1.15;;
56720;SDS011;53183;47.412;18.884;2023-09-19T14:00:24;3.17;;;1.30;;
56720;SDS011;53183;47.412;18.884;2023-09-19T14:02:52;2.67;;;1.23;;
56720;SDS011;53183;47.412;18.884;2023-09-19T14:05:20;3.35;;;1.33;;
56720;SDS011;53183;47.412;18.884;2023-09-19T14:07:49;2.53;;;1.10;;
56720;SDS011;53183;47.412;18.884;2023-09-19T14:10:17;4.50;;;1.10;;
56720;SDS011;53183;47.412;18.884;2023-09-19T14:12:44;3.97;;;0.95;;
56720;SDS011;53183;47.412;18.884;2023-09-19T14:15:13;2.35;;;1.25;;
56720;SDS011;53183;47.412;18.884;2023-09-19T14:17:41;3.35;;;1.45;;
56720;SDS011;53183;47.412;18.884;2023-09-19T14:20:14;2.00;;;1.20;;
56720;SDS011;53183;47.412;18.884;2023-09-19T14:22:42;1.05;;;0.88;;
56720;SDS011;53183;47.412;18.884;2023-09-19T14:25:10;4.30;;;1.30;;
56720;SDS011;53183;47.412;18.884;2023-09-19T14:27:38;2.42;;;1.50;;
56720;SDS011;53183;47.412;18.884;2023-09-19T14:30:06;3.33;;;1.30;;
56720;SDS011;53183;47.412;18.884;2023-09-19T14:32:34;4.60;;;1.40;;
56720;SDS011;53183;47.412;18.884;2023-09-19T14:35:02;5.00;;;1.17;;
56720;SDS011;53183;47.412;18.884;2023-09-19T14:37:31;2.25;;;1.02;;
56720;SDS011;53183;47.412;18.884;2023-09-19T14:39:58;2.20;;;1.30;;
56720;SDS011;53183;47.412;18.884;2023-09-19T14:42:25;2.20;;;1.52;;
56720;SDS011;53183;47.412;18.884;2023-09-19T14:44:54;2.30;;;1.45;;
56720;SDS011;53183;47.412;18.884;2023-09-19T14:47:22;2.17;;;1.25;;
56720;SDS011;53183;47.412;18.884;2023-09-19T14:49:51;3.28;;;1.40;;
56720;SDS011;53183;47.412;18.884;2023-09-19T14:52:18;2.40;;;1.40;;
56720;SDS011;53183;47.412;18.884;2023-09-19T14:54:46;3.15;;;1.05;;
56720;SDS011;53183;47.412;18.884;2023-09-19T14:57:13;4.57;;;1.50;;
56720;SDS011;53183;47.412;18.884;2023-09-19T14:59:42;4.00;;;1.27;;
56720;SDS011;53183;47.412;18.884;2023-09-19T15:02:09;1.87;;;1.20;;
56720;SDS011;53183;47.412;18.884;2023-09-19T15:04:37;3.47;;;0.90;;
56720;SDS011;53183;47.412;18.884;2023-09-19T15:07:09;3.10;;;1.40;;
56720;SDS011;53183;47.412;18.884;2023-09-19T15:09:36;6.45;;;2.40;;
56720;SDS011;53183;47.412;18.884;2023-09-19T15:12:05;5.10;;;1.50;;
56720;SDS011;53183;47.412;18.884;2023-09-19T15:14:33;2.12;;;0.98;;
56720;SDS011;53183;47.412;18.884;2023-09-19T15:17:00;4.15;;;2.03;;
56720;SDS011;53183;47.412;18.884;2023-09-19T15:19:27;3.17;;;2.15;;
56720;SDS011;53183;47.412;18.884;2023-09-19T15:21:55;2.83;;;1.30;;
56720;SDS011;53183;47.412;18.884;2023-09-19T15:24:22;4.45;;;1.60;;
56720;SDS011;53183;47.412;18.884;2023-09-19T15:26:50;2.05;;;1.20;;
56720;SDS011;53183;47.412;18.884;2023-09-19T15:29:20;1.95;;;1.20;;
56720;SDS011;53183;47.412;18.884;2023-09-19T15:31:49;2.75;;;1.40;;
56720;SDS011;53183;47.412;18.884;2023-09-19T15:34:17;2.80;;;1.52;;
56720;SDS011;53183;47.412;18.884;2023-09-19T15:36:44;3.95;;;1.62;;
56720;SDS011;53183;47.412;18.884;2023-09-19T15:39:13;3.17;;;1.50;;
56720;SDS011;53183;47.412;18.884;2023-09-19T15:41:44;2.95;;;1.50;;
56720;SDS011;53183;47.412;18.884;2023-09-19T15:44:14;5.72;;;1.17;;
56720;SDS011;53183;47.412;18.884;2023-09-19T15:46:43;1.95;;;1.27;;
56720;SDS011;53183;47.412;18.884;2023-09-19T15:49:12;2.33;;;1.20;;
56720;SDS011;53183;47.412;18.884;2023-09-19T15:51:40;11.65;;;1.92;;
56720;SDS011;53183;47.412;18.884;2023-09-19T15:54:11;2.60;;;1.45;;
56720;SDS011;53183;47.412;18.884;2023-09-19T15:56:43;3.08;;;1.35;;
56720;SDS011;53183;47.412;18.884;2023-09-19T15:59:12;3.67;;;1.67;;
56720;SDS011;53183;47.412;18.884;2023-09-19T16:01:40;4.43;;;1.60;;
56720;SDS011;53183;47.412;18.884;2023-09-19T16:04:12;3.80;;;1.65;;
56720;SDS011;53183;47.412;18.884;2023-09-19T16:06:41;5.55;;;1.37;;
56720;SDS011;53183;47.412;18.884;2023-09-19T16:09:09;4.40;;;1.42;;
56720;SDS011;53183;47.412;18.884;2023-09-19T16:11:37;3.78;;;1.40;;
56720;SDS011;53183;47.412;18.884;2023-09-19T16:14:05;3.62;;;1.80;;
56720;SDS011;53183;47.412;18.884;2023-09-19T16:16:35;6.43;;;1.75;;
56720;SDS011;53183;47.412;18.884;2023-09-19T16:19:04;5.05;;;1.10;;
56720;SDS011;53183;47.412;18.884;2023-09-19T16:21:39;2.20;;;1.35;;
56720;SDS011;53183;47.412;18.884;2023-09-19T16:24:10;5.43;;;1.50;;
56720;SDS011;53183;47.412;18.884;2023-09-19T16:26:39;3.25;;;1.73;;
56720;SDS011;53183;47.412;18.884;2023-09-19T16:29:13;3.50;;;1.62;;
56720;SDS011;53183;47.412;18.884;2023-09-19T16:31:40;6.30;;;2.10;;
56720;SDS011;53183;47.412;18.884;2023-09-19T16:34:08;6.40;;;2.20;;
56720;SDS011;53183;47.412;18.884;2023-09-19T16:36:36;2.40;;;1.50;;
56720;SDS011;53183;47.412;18.884;2023-09-19T16:39:05;3.05;;;1.58;;
56720;SDS011;53183;47.412;18.884;2023-09-19T16:41:34;5.37;;;1.48;;
56720;SDS011;53183;47.412;18.884;2023-09-19T16:44:01;1.77;;;1.08;;
56720;SDS011;53183;47.412;18.884;2023-09-19T16:46:29;3.33;;;2.03;;
56720;SDS011;53183;47.412;18.884;2023-09-19T16:48:56;3.10;;;1.67;;
56720;SDS011;53183;47.412;18.884;2023-09-19T16:51:30;5.30;;;1.83;;
56720;SDS011;53183;47.412;18.884;2023-09-19T16:53:59;2.55;;;1.45;;
56720;SDS011;53183;47.412;18.884;2023-09-19T16:56:26;4.20;;;1.50;;
56720;SDS011;53183;47.412;18.884;2023-09-19T16:58:55;3.58;;;1.80;;
56720;SDS011;53183;47.412;18.884;2023-09-19T17:01:23;2.22;;;1.48;;
56720;SDS011;53183;47.412;18.884;2023-09-19T17:03:52;3.10;;;1.62;;
56720;SDS011;53183;47.412;18.884;2023-09-19T17:06:22;2.15;;;1.95;;
56720;SDS011;53183;47.412;18.884;2023-09-19T17:08:51;3.60;;;1.40;;
56720;SDS011;53183;47.412;18.884;2023-09-19T17:11:18;6.15;;;1.60;;
56720;SDS011;53183;47.412;18.884;2023-09-19T17:13:49;4.35;;;1.80;;
56720;SDS011;53183;47.412;18.884;2023-09-19T17:16:18;4.60;;;1.90;;
56720;SDS011;53183;47.412;18.884;2023-09-19T17:18:54;4.32;;;1.45;;
56720;SDS011;53183;47.412;18.884;2023-09-19T17:21:23;4.00;;;1.55;;
56720;SDS011;53183;47.412;18.884;2023-09-19T17:23:53;3.40;;;1.70;;
56720;SDS011;53183;47.412;18.884;2023-09-19T17:26:23;5.07;;;1.80;;
56720;SDS011;53183;47.412;18.884;2023-09-19T17:28:52;3.47;;;1.37;;
56720;SDS011;53183;47.412;18.884;2023-09-19T17:31:22;3.83;;;2.00;;
56720;SDS011;53183;47.412;18.884;2023-09-19T17:33:52;7.20;;;2.37;;
56720;SDS011;53183;47.412;18.884;2023-09-19T17:36:24;3.75;;;2.20;;
56720;SDS011;53183;47.412;18.884;2023-09-19T17:38:53;6.18;;;2.47;;
56720;SDS011;53183;47.412;18.884;2023-09-19T17:41:24;6.95;;;2.67;;
56720;SDS011;53183;47.412;18.884;2023-09-19T17:43:55;4.28;;;2.40;;
56720;SDS011;53183;47.412;18.884;2023-09-19T17:46:24;9.07;;;3.00;;
56720;SDS011;53183;47.412;18.884;2023-09-19T17:48:55;3.80;;;2.62;;
56720;SDS011;53183;47.412;18.884;2023-09-19T17:51:25;3.15;;;2.00;;
56720;SDS011;53183;47.412;18.884;2023-09-19T17:53:59;5.30;;;2.78;;
56720;SDS011;53183;47.412;18.884;2023-09-19T17:56:28;3.87;;;2.30;;
56720;SDS011;53183;47.412;18.884;2023-09-19T17:58:55;6.37;;;2.70;;
56720;SDS011;53183;47.412;18.884;2023-09-19T18:01:25;7.72;;;2.95;;
56720;SDS011;53183;47.412;18.884;2023-09-19T18:03:55;4.30;;;2.28;;
56720;SDS011;53183;47.412;18.884;2023-09-19T18:06:29;6.75;;;2.80;;
56720;SDS011;53183;47.412;18.884;2023-09-19T18:09:01;5.62;;;2.53;;
56720;SDS011;53183;47.412;18.884;2023-09-19T18:11:34;3.53;;;2.67;;
56720;SDS011;53183;47.412;18.884;2023-09-19T18:14:03;3.05;;;2.35;;
56720;SDS011;53183;47.412;18.884;2023-09-19T18:16:31;6.18;;;3.15;;
56720;SDS011;53183;47.412;18.884;2023-09-19T18:18:59;5.47;;;3.08;;
56720;SDS011;53183;47.412;18.884;2023-09-19T18:21:29;3.22;;;2.20;;
56720;SDS011;53183;47.412;18.884;2023-09-19T18:23:59;3.62;;;2.30;;
56720;SDS011;53183;47.412;18.884;2023-09-19T18:26:43;4.68;;;2.15;;
56720;SDS011;53183;47.412;18.884;2023-09-19T18:29:10;3.37;;;2.20;;
56720;SDS011;53183;47.412;18.884;2023-09-19T18:31:39;8.20;;;2.95;;
56720;SDS011;53183;47.412;18.884;2023-09-19T18:34:07;5.28;;;2.37;;
56720;SDS011;53183;47.412;18.884;2023-09-19T18:36:37;2.75;;;1.80;;
56720;SDS011;53183;47.412;18.884;2023-09-19T18:39:05;5.87;;;2.62;;
56720;SDS011;53183;47.412;18.884;2023-09-19T18:41:35;3.92;;;2.20;;
56720;SDS011;53183;47.412;18.884;2023-09-19T18:44:08;3.33;;;1.92;;
56720;SDS011;53183;47.412;18.884;2023-09-19T18:46:48;5.10;;;2.53;;
56720;SDS011;53183;47.412;18.884;2023-09-19T18:49:15;5.45;;;2.47;;
56720;SDS011;53183;47.412;18.884;2023-09-19T18:51:43;6.85;;;2.40;;
56720;SDS011;53183;47.412;18.884;2023-09-19T18:54:11;8.57;;;2.65;;
56720;SDS011;53183;47.412;18.884;2023-09-19T18:56:40;3.37;;;2.53;;
56720;SDS011;53183;47.412;18.884;2023-09-19T18:59:11;3.67;;;2.40;;
56720;SDS011;53183;47.412;18.884;2023-09-19T19:01:42;4.20;;;2.30;;
56720;SDS011;53183;47.412;18.884;2023-09-19T19:04:11;4.22;;;2.47;;
56720;SDS011;53183;47.412;18.884;2023-09-19T19:06:40;4.60;;;3.03;;
56720;SDS011;53183;47.412;18.884;2023-09-19T19:09:09;5.32;;;2.87;;
56720;SDS011;53183;47.412;18.884;2023-09-19T19:11:37;12.52;;;3.12;;
56720;SDS011;53183;47.412;18.884;2023-09-19T19:14:05;5.22;;;3.37;;
56720;SDS011;53183;47.412;18.884;2023-09-19T19:16:34;2.87;;;2.22;;
56720;SDS011;53183;47.412;18.884;2023-09-19T19:19:05;4.40;;;2.60;;
56720;SDS011;53183;47.412;18.884;2023-09-19T19:21:36;4.68;;;2.50;;
56720;SDS011;53183;47.412;18.884;2023-09-19T19:24:04;4.50;;;2.45;;
56720;SDS011;53183;47.412;18.884;2023-09-19T19:26:32;4.93;;;2.42;;
56720;SDS011;53183;47.412;18.884;2023-09-19T19:28:59;4.43;;;2.67;;
56720;SDS011;53183;47.412;18.884;2023-09-19T19:31:27;6.50;;;2.53;;
56720;SDS011;53183;47.412;18.884;2023-09-19T19:33:55;7.03;;;2.95;;
56720;SDS011;53183;47.412;18.884;2023-09-19T19:36:25;5.18;;;2.22;;
56720;SDS011;53183;47.412;18.884;2023-09-19T19:38:53;3.78;;;2.40;;
56720;SDS011;53183;47.412;18.884;2023-09-19T19:41:22;6.60;;;2.62;;
56720;SDS011;53183;47.412;18.884;2023-09-19T19:43:51;3.40;;;2.40;;
56720;SDS011;53183;47.412;18.884;2023-09-19T19:46:18;4.35;;;2.72;;
56720;SDS011;53183;47.412;18.884;2023-09-19T19:48:50;4.82;;;2.25;;
56720;SDS011;53183;47.412;18.884;2023-09-19T19:51:19;3.28;;;2.33;;
56720;SDS011;53183;47.412;18.884;2023-09-19T19:53:46;4.07;;;2.80;;
56720;SDS011;53183;47.412;18.884;2023-09-19T19:56:14;4.07;;;2.62;;
56720;SDS011;53183;47.412;18.884;2023-09-19T19:58:42;5.10;;;2.60;;
56720;SDS011;53183;47.412;18.884;2023-09-19T20:01:09;4.20;;;2.12;;
56720;SDS011;53183;47.412;18.884;2023-09-19T20:03:37;5.30;;;2.42;;
56720;SDS011;53183;47.412;18.884;2023-09-19T20:06:05;3.40;;;2.60;;
56720;SDS011;53183;47.412;18.884;2023-09-19T20:08:33;5.62;;;2.92;;
56720;SDS011;53183;47.412;18.884;2023-09-19T20:11:03;6.65;;;2.50;;
56720;SDS011;53183;47.412;18.884;2023-09-19T20:13:34;3.70;;;2.17;;
56720;SDS011;53183;47.412;18.884;2023-09-19T20:16:02;5.05;;;2.37;;
56720;SDS011;53183;47.412;18.884;2023-09-19T20:18:31;3.53;;;2.22;;
56720;SDS011;53183;47.412;18.884;2023-09-19T20:21:03;7.90;;;2.05;;
56720;SDS011;53183;47.412;18.884;2023-09-19T20:23:37;8.65;;;2.45;;
56720;SDS011;53183;47.412;18.884;2023-09-19T20:26:06;4.40;;;2.22;;
56720;SDS011;53183;47.412;18.884;2023-09-19T20:28:34;5.07;;;2.37;;
56720;SDS011;53183;47.412;18.884;2023-09-19T20:31:09;2.45;;;1.60;;
56720;SDS011;53183;47.412;18.884;2023-09-19T20:33:38;4.70;;;1.87;;
56720;SDS011;53183;47.412;18.884;2023-09-19T20:36:08;7.68;;;2.17;;
56720;SDS011;53183;47.412;18.884;2023-09-19T20:38:37;3.90;;;2.20;;
56720;SDS011;53183;47.412;18.884;2023-09-19T20:41:09;5.75;;;1.90;;
56720;SDS011;53183;47.412;18.884;2023-09-19T20:43:37;3.20;;;2.12;;
56720;SDS011;53183;47.412;18.884;2023-09-19T20:46:09;2.53;;;1.30;;
56720;SDS011;53183;47.412;18.884;2023-09-19T20:48:38;4.12;;;1.45;;
56720;SDS011;53183;47.412;18.884;2023-09-19T20:51:11;4.07;;;1.55;;
56720;SDS011;53183;47.412;18.884;2023-09-19T20:53:41;5.35;;;1.50;;
56720;SDS011;53183;47.412;18.884;2023-09-19T20:56:13;2.65;;;1.67;;
56720;SDS011;53183;47.412;18.884;2023-09-19T20:58:43;3.37;;;1.70;;
56720;SDS011;53183;47.412;18.884;2023-09-19T21:01:12;2.40;;;1.50;;
56720;SDS011;53183;47.412;18.884;2023-09-19T21:03:39;2.65;;;1.50;;
56720;SDS011;53183;47.412;18.884;2023-09-19T21:06:09;3.75;;;1.50;;
56720;SDS011;53183;47.412;18.884;2023-09-19T21:08:42;2.45;;;1.80;;
56720;SDS011;53183;47.412;18.884;2023-09-19T21:11:13;5.18;;;2.87;;
56720;SDS011;53183;47.412;18.884;2023-09-19T21:13:44;36.17;;;12.82;;
56720;SDS011;53183;47.412;18.884;2023-09-19T21:16:14;29.95;;;13.15;;
56720;SDS011;53183;47.412;18.884;2023-09-19T21:18:44;22.77;;;10.55;;
56720;SDS011;53183;47.412;18.884;2023-09-19T21:21:13;8.70;;;4.43;;
56720;SDS011;53183;47.412;18.884;2023-09-19T21:23:41;7.35;;;3.83;;
56720;SDS011;53183;47.412;18.884;2023-09-19T21:26:11;7.97;;;3.72;;
56720;SDS011;53183;47.412;18.884;2023-09-19T21:28:40;7.00;;;4.10;;
56720;SDS011;53183;47.412;18.884;2023-09-19T21:31:08;6.55;;;4.10;;
56720;SDS011;53183;47.412;18.884;2023-09-19T21:33:37;10.77;;;5.22;;
56720;SDS011;53183;47.412;18.884;2023-09-19T21:36:06;8.73;;;4.30;;
56720;SDS011;53183;47.412;18.884;2023-09-19T21:38:41;6.15;;;3.70;;
56720;SDS011;53183;47.412;18.884;2023-09-19T21:41:09;6.10;;;3.95;;
56720;SDS011;53183;47.412;18.884;2023-09-19T21:43:39;7.47;;;3.85;;
56720;SDS011;53183;47.412;18.884;2023-09-19T21:46:07;5.53;;;3.08;;
56720;SDS011;53183;47.412;18.884;2023-09-19T21:48:36;8.70;;;4.55;;
56720;SDS011;53183;47.412;18.884;2023-09-19T21:51:03;6.05;;;3.10;;
56720;SDS011;53183;47.412;18.884;2023-09-19T21:53:33;4.93;;;3.08;;
56720;SDS011;53183;47.412;18.884;2023-09-19T21:56:03;4.28;;;2.70;;
56720;SDS011;53183;47.412;18.884;2023-09-19T21:58:32;5.87;;;3.15;;
56720;SDS011;53183;47.412;18.884;2023-09-19T22:01:03;7.57;;;2.80;;
56720;SDS011;53183;47.412;18.884;2023-09-19T22:03:34;3.53;;;2.40;;
56720;SDS011;53183;47.412;18.884;2023-09-19T22:06:11;4.93;;;2.67;;
56720;SDS011;53183;47.412;18.884;2023-09-19T22:08:44;5.78;;;2.83;;
56720;SDS011;53183;47.412;18.884;2023-09-19T22:11:19;5.70;;;3.37;;
56720;SDS011;53183;47.412;18.884;2023-09-19T22:13:49;6.20;;;3.07;;
56720;SDS011;53183;47.412;18.884;2023-09-19T22:16:18;4.60;;;3.28;;
56720;SDS011;53183;47.412;18.884;2023-09-19T22:18:47;7.47;;;3.30;;
56720;SDS011;53183;47.412;18.884;2023-09-19T22:21:18;7.20;;;2.92;;
56720;SDS011;53183;47.412;18.884;2023-09-19T22:23:46;4.57;;;2.53;;
56720;SDS011;53183;47.412;18.884;2023-09-19T22:26:14;8.50;;;2.58;;
56720;SDS011;53183;47.412;18.884;2023-09-19T22:28:46;4.93;;;2.65;;
56720;SDS011;53183;47.412;18.884;2023-09-19T22:31:18;5.18;;;2.50;;
56720;SDS011;53183;47.412;18.884;2023-09-19T22:33:54;7.57;;;3.03;;
56720;SDS011;53183;47.412;18.884;2023-09-19T22:36:22;3.97;;;2.62;;
56720;SDS011;53183;47.412;18.884;2023-09-19T22:38:58;5.32;;;2.67;;
56720;SDS011;53183;47.412;18.884;2023-09-19T22:41:28;3.37;;;2.30;;
56720;SDS011;53183;47.412;18.884;2023-09-19T22:43:55;3.80;;;2.12;;
56720;SDS011;53183;47.412;18.884;2023-09-19T22:46:23;2.85;;;2.22;;
56720;SDS011;53183;47.412;18.884;2023-09-19T22:48:55;3.05;;;2.08;;
56720;SDS011;53183;47.412;18.884;2023-09-19T22:51:23;3.03;;;2.05;;
56720;SDS011;53183;47.412;18.884;2023-09-19T22:54:06;5.82;;;2.15;;
56720;SDS011;53183;47.412;18.884;2023-09-19T22:56:38;3.35;;;1.90;;
56720;SDS011;53183;47.412;18.884;2023-09-19T22:59:07;5.12;;;1.98;;
56720;SDS011;53183;47.412;18.884;2023-09-19T23:01:35;4.60;;;2.35;;
56720;SDS011;53183;47.412;18.884;2023-09-19T23:04:03;6.03;;;2.80;;
56720;SDS011;53183;47.412;18.884;2023-09-19T23:06:43;5.05;;;3.20;;
56720;SDS011;53183;47.412;18.884;2023-09-19T23:09:22;4.43;;;2.80;;
56720;SDS011;53183;47.412;18.884;2023-09-19T23:11:55;4.57;;;2.42;;
56720;SDS011;53183;47.412;18.884;2023-09-19T23:14:33;3.33;;;1.83;;
56720;SDS011;53183;47.412;18.884;2023-09-19T23:17:06;3.25;;;1.52;;
56720;SDS011;53183;47.412;18.884;2023-09-19T23:19:42;6.15;;;1.85;;
56720;SDS011;53183;47.412;18.884;2023-09-19T23:22:15;3.28;;;2.28;;
56720;SDS011;53183;47.412;18.884;2023-09-19T23:24:45;2.90;;;1.80;;
56720;SDS011;53183;47.412;18.884;2023-09-19T23:27:17;2.90;;;1.70;;
56720;SDS011;53183;47.412;18.884;2023-09-19T23:29:52;3.75;;;2.05;;
56720;SDS011;53183;47.412;18.884;2023-09-19T23:32:22;3.20;;;2.12;;
56720;SDS011;53183;47.412;18.884;2023-09-19T23:34:49;10.45;;;2.17;;
56720;SDS011;53183;47.412;18.884;2023-09-19T23:37:17;3.37;;;2.30;;
56720;SDS011;53183;47.412;18.884;2023-09-19T23:39:48;4.25;;;1.90;;
56720;SDS011;53183;47.412;18.884;2023-09-19T23:42:18;2.53;;;1.75;;
56720;SDS011;53183;47.412;18.884;2023-09-19T23:44:46;3.83;;;1.85;;
56720;SDS011;53183;47.412;18.884;2023-09-19T23:47:18;3.42;;;2.10;;
56720;SDS011;53183;47.412;18.884;2023-09-19T23:49:45;2.65;;;2.08;;
56720;SDS011;53183;47.412;18.884;2023-09-19T23:52:16;5.55;;;2.15;;
56720;SDS011;53183;47.412;18.884;2023-09-19T23:54:45;3.17;;;2.17;;
56720;SDS011;53183;47.412;18.884;2023-09-19T23:57:16;3.65;;;1.70;;
56720;SDS011;53183;47.412;18.884;2023-09-19T23:59:45;3.62;;;1.73;;
